Time;durP1;ratioP1;P1;durP2;ratioP2;P2;SDS_P1;SDS_P2;PMS_P1;PMS_P2;Temp;Humidity;BMP_temperature;BMP_pressure;BME280_temperature;BME280_humidity;BME280_pressure;Samples;Min_cycle;Max_cycle;Signal;HPM_P1;HPM_P2
2021/12/16 07:59:17;;;;;;;42.60;32.90;;;;;;;7.54;95.84;103542.88;5258567;28;20415;-63
2021/12/16 08:01:49;;;;;;;43.08;32.20;;;;;;;7.49;96.09;103544.53;5255949;28;20042;-63
2021/12/16 08:04:26;;;;;;;40.72;32.45;;;;;;;7.48;96.04;103553.88;5257477;28;20392;-63
2021/12/16 08:07:05;;;;;;;43.70;34.15;;;;;;;7.54;96.14;103553.06;5258763;28;20040;-63
2021/12/16 08:09:40;;;;;;;50.30;35.95;;;;;;;8.16;99.43;103554.00;5259218;28;20034;-66
2021/12/16 08:12:13;;;;;;;44.08;34.28;;;;;;;8.39;99.87;103557.28;5258778;28;20045;-65
2021/12/16 08:14:46;;;;;;;41.70;33.40;;;;;;;8.47;96.73;103562.63;5258597;28;20032;-65
2021/12/16 08:17:17;;;;;;;39.35;29.90;;;;;;;8.40;95.57;103563.66;5259094;28;20021;-65
2021/12/16 08:19:49;;;;;;;40.42;30.23;;;;;;;8.58;95.96;103569.44;5257458;28;20025;-65
2021/12/16 08:22:20;;;;;;;36.33;29.20;;;;;;;8.44;94.55;103570.50;5258302;28;20025;-66
2021/12/16 08:24:51;;;;;;;35.60;28.50;;;;;;;8.49;94.12;103577.09;5259155;28;20110;-65
2021/12/16 08:27:23;;;;;;;38.85;29.45;;;;;;;8.34;92.92;103576.38;5258905;28;20029;-65
2021/12/16 08:29:54;;;;;;;38.58;29.90;;;;;;;8.44;93.97;103582.41;5257336;28;20111;-67
2021/12/16 08:32:26;;;;;;;37.50;29.65;;;;;;;8.40;93.05;103585.78;5257142;28;20025;-66
2021/12/16 08:34:57;;;;;;;36.42;29.15;;;;;;;8.15;92.17;103590.97;5254917;28;20060;-65
2021/12/16 08:37:29;;;;;;;39.80;29.55;;;;;;;8.21;92.57;103588.25;5249447;28;20075;-65
2021/12/16 08:40:03;;;;;;;40.25;30.95;;;;;;;8.11;92.78;103595.22;5257984;28;20090;-67
2021/12/16 08:42:34;;;;;;;47.28;32.25;;;;;;;8.24;93.77;103582.31;5257921;28;20025;-65
2021/12/16 08:45:09;;;;;;;45.20;34.00;;;;;;;8.00;93.17;103603.06;5258173;28;20420;-67
2021/12/16 08:47:41;;;;;;;49.88;33.03;;;;;;;8.09;93.22;103598.19;5243890;28;20531;-67
2021/12/16 08:50:16;;;;;;;53.53;36.63;;;;;;;8.12;92.98;103595.00;5256439;28;20021;-67
2021/12/16 08:52:48;;;;;;;39.47;31.33;;;;;;;8.24;93.84;103593.34;5256355;28;20381;-67
2021/12/16 08:55:20;;;;;;;42.55;30.50;;;;;;;8.07;93.32;103605.81;5257616;28;20071;-67
2021/12/16 08:57:53;;;;;;;46.05;33.90;;;;;;;8.06;93.88;103601.38;5257104;28;20507;-67
2021/12/16 09:00:28;;;;;;;39.22;33.08;;;;;;;8.05;93.79;103608.81;5257179;28;20053;-67
2021/12/16 09:03:00;;;;;;;50.00;39.83;;;;;;;8.03;94.12;103623.91;5256833;28;20021;-66
2021/12/16 09:05:32;;;;;;;50.25;40.10;;;;;;;8.00;94.59;103622.41;5256702;28;20033;-66
2021/12/16 09:08:05;;;;;;;37.40;30.80;;;;;;;8.17;95.48;103620.13;5258083;28;20101;-65
2021/12/16 09:10:37;;;;;;;33.95;28.13;;;;;;;8.18;95.33;103623.72;5232737;28;20036;-64
2021/12/16 09:13:14;;;;;;;35.17;29.23;;;;;;;8.32;95.32;103627.44;5223693;28;20492;-65
2021/12/16 09:15:50;;;;;;;39.03;29.25;;;;;;;8.31;95.51;103617.41;5241903;28;20037;-64
2021/12/16 09:18:25;;;;;;;37.38;26.85;;;;;;;8.36;96.11;103618.50;5243149;28;20036;-64
2021/12/16 09:21:00;;;;;;;34.45;29.90;;;;;;;8.39;96.12;103629.19;5244206;28;20069;-66
2021/12/16 09:23:32;;;;;;;35.28;28.38;;;;;;;8.42;96.31;103630.69;5244060;28;20035;-66
2021/12/16 09:26:04;;;;;;;32.53;28.30;;;;;;;8.44;96.34;103636.88;5242302;28;20037;-66
2021/12/16 09:28:37;;;;;;;33.05;28.55;;;;;;;8.49;96.58;103623.28;5224977;28;20022;-65
2021/12/16 09:31:12;;;;;;;32.63;27.85;;;;;;;8.52;96.13;103617.31;5241520;28;20029;-66
2021/12/16 09:33:48;;;;;;;42.60;28.67;;;;;;;8.51;96.91;103625.81;5243243;28;20485;-66
2021/12/16 09:36:23;;;;;;;43.85;36.90;;;;;;;8.54;96.76;103626.25;5243725;28;20450;-67
2021/12/16 09:38:56;;;;;;;39.17;32.15;;;;;;;8.57;97.27;103628.59;5242385;28;20032;-65
2021/12/16 09:41:28;;;;;;;35.55;29.40;;;;;;;8.58;97.44;103630.28;5243725;28;20029;-66
2021/12/16 09:44:00;;;;;;;35.85;29.05;;;;;;;8.63;97.86;103633.28;5242792;28;20029;-65
2021/12/16 09:46:31;;;;;;;42.30;29.67;;;;;;;8.63;97.58;103630.53;5243025;28;20021;-67
2021/12/16 09:49:03;;;;;;;37.95;29.80;;;;;;;8.69;97.36;103639.91;5242435;28;20048;-69
2021/12/16 09:51:37;;;;;;;37.45;29.63;;;;;;;8.67;97.59;103636.50;5226148;28;20037;-70
2021/12/16 09:54:11;;;;;;;38.33;30.83;;;;;;;8.80;98.06;103641.22;5222394;28;20382;-69
2021/12/16 09:56:47;;;;;;;35.58;30.17;;;;;;;8.85;97.54;103639.53;5222712;28;20022;-70
2021/12/16 09:59:20;;;;;;;37.47;29.83;;;;;;;8.75;97.66;103632.69;5226283;28;20033;-70
2021/12/16 10:01:56;;;;;;;34.33;28.98;;;;;;;8.84;97.29;103631.41;5229912;28;20045;-69
2021/12/16 10:04:31;;;;;;;35.85;30.23;;;;;;;8.90;97.21;103636.13;5235867;28;20040;-69
2021/12/16 10:07:11;;;;;;;35.50;29.65;;;;;;;8.91;97.26;103646.13;5242287;28;20051;-68
2021/12/16 10:09:44;;;;;;;47.00;31.73;;;;;;;8.89;97.11;103634.41;5241845;28;20030;-69
2021/12/16 10:12:20;;;;;;;39.47;32.33;;;;;;;8.97;98.03;103636.97;5243146;28;20366;-68
2021/12/16 10:17:41;;;;;;;39.90;32.33;;;;;;;9.04;98.38;103643.38;5239835;28;20116;-68
2021/12/16 10:20:17;;;;;;;39.33;31.77;;;;;;;9.14;98.83;103632.72;5232529;28;20033;-69
2021/12/16 10:22:50;;;;;;;34.72;29.98;;;;;;;9.19;98.84;103639.56;5241687;28;20405;-67
2021/12/16 10:25:33;;;;;;;37.55;30.52;;;;;;;9.27;98.58;103647.66;5242919;28;20101;-67
2021/12/16 10:28:23;;;;;;;39.28;29.17;;;;;;;9.28;98.83;103635.50;5241649;28;20025;-67
2021/12/16 10:31:05;;;;;;;35.45;30.08;;;;;;;9.35;98.84;103636.34;5242401;28;20026;-68
2021/12/16 10:33:42;;;;;;;41.22;30.90;;;;;;;9.42;98.76;103633.59;5242726;28;20025;-68
2021/12/16 10:36:13;;;;;;;36.00;31.65;;;;;;;9.46;99.16;103641.28;5228974;28;20025;-69
2021/12/16 10:38:49;;;;;;;40.10;30.25;;;;;;;9.50;99.00;103641.69;5242624;28;20029;-68
2021/12/16 10:41:29;;;;;;;35.65;28.83;;;;;;;9.52;98.49;103634.84;5240177;28;20540;-69
2021/12/16 10:44:14;;;;;;;45.05;30.45;;;;;;;9.61;98.59;103629.94;5242473;28;20033;-68
2021/12/16 10:47:02;;;;;;;69.30;61.10;;;;;;;9.69;98.52;103629.72;5234917;28;20037;-68
2021/12/16 10:49:38;;;;;;;39.08;30.85;;;;;;;9.76;97.92;103635.25;5231169;28;20087;-68
2021/12/16 10:52:19;;;;;;;33.72;27.20;;;;;;;9.74;97.90;103632.69;5241330;28;20028;-68
2021/12/16 10:54:51;;;;;;;34.45;27.00;;;;;;;9.79;97.51;103637.56;5241797;28;20083;-67
2021/12/16 10:57:25;;;;;;;32.65;25.65;;;;;;;9.89;97.28;103631.59;5240784;28;20037;-69
2021/12/16 11:00:08;;;;;;;38.22;27.17;;;;;;;9.85;96.09;103628.41;5241841;28;20121;-68
2021/12/16 11:02:40;;;;;;;29.50;26.15;;;;;;;9.87;97.10;103637.38;5241200;28;20083;-69
2021/12/16 11:05:19;;;;;;;28.85;22.95;;;;;;;9.89;96.10;103640.75;5242050;28;20029;-69
2021/12/16 11:07:55;;;;;;;26.05;21.95;;;;;;;9.98;95.64;103638.59;5238350;28;20108;-69
2021/12/16 11:10:30;;;;;;;26.05;22.52;;;;;;;10.04;95.46;103637.72;5239684;28;20029;-69
2021/12/16 11:13:13;;;;;;;39.00;28.45;;;;;;;10.07;94.83;103641.97;5241443;28;20029;-70
2021/12/16 11:15:48;;;;;;;30.15;23.05;;;;;;;10.11;95.21;103638.56;5241240;28;20032;-67
2021/12/16 11:18:22;;;;;;;31.38;24.30;;;;;;;10.10;94.69;103638.75;5241038;28;20041;-68
2021/12/16 11:20:58;;;;;;;27.10;22.48;;;;;;;10.13;94.22;103646.69;5241616;28;20484;-68
2021/12/16 11:23:35;;;;;;;29.27;22.23;;;;;;;10.17;93.66;103642.38;5241012;28;20025;-68
2021/12/16 11:26:13;;;;;;;31.10;23.48;;;;;;;10.23;94.35;103647.91;5240601;28;20105;-69
2021/12/16 11:28:48;;;;;;;31.35;22.90;;;;;;;10.31;93.25;103648.78;5237939;28;20076;-71
2021/12/16 11:31:32;;;;;;;24.90;19.20;;;;;;;10.32;93.04;103640.22;5220283;28;20026;-68
2021/12/16 11:34:07;;;;;;;41.25;36.80;;;;;;;10.28;93.04;103644.50;5220644;28;20037;-69
2021/12/16 11:36:44;;;;;;;69.82;60.10;;;;;;;10.25;92.22;103647.66;5234336;28;20021;-68
2021/12/16 11:39:22;;;;;;;91.30;78.05;;;;;;;10.27;92.38;103641.91;5240448;28;20029;-71
2021/12/16 11:42:00;;;;;;;42.63;32.72;;;;;;;10.25;91.17;103644.91;5240252;28;20037;-71
2021/12/16 11:44:39;;;;;;;29.23;19.98;;;;;;;10.26;91.88;103643.84;5233234;28;20049;-70
2021/12/16 11:47:23;;;;;;;27.83;22.75;;;;;;;10.32;92.42;103634.66;5239860;28;20037;-70
2021/12/16 11:50:01;;;;;;;23.48;18.52;;;;;;;10.31;91.12;103634.91;5239170;28;20425;-69
2021/12/16 11:52:36;;;;;;;21.90;17.27;;;;;;;10.39;91.85;103635.50;5240804;28;20458;-69
2021/12/16 11:55:18;;;;;;;23.27;17.42;;;;;;;10.44;91.99;103637.59;5241209;28;20028;-69
2021/12/16 11:57:53;;;;;;;25.45;19.10;;;;;;;10.55;91.95;103638.84;5239029;28;20060;-69
2021/12/16 12:00:29;;;;;;;26.70;21.10;;;;;;;10.65;92.16;103634.50;5231102;28;20038;-68
2021/12/16 12:03:07;;;;;;;24.88;18.58;;;;;;;10.73;91.31;103622.28;5237906;28;20017;-69
2021/12/16 12:05:50;;;;;;;25.40;19.20;;;;;;;10.75;91.41;103622.91;5240001;28;20033;-68
2021/12/16 12:08:23;;;;;;;21.23;16.20;;;;;;;10.69;90.57;103628.53;5240875;28;20049;-67
2021/12/16 12:10:59;;;;;;;25.67;19.02;;;;;;;10.68;90.32;103622.09;5240858;28;20033;-67
2021/12/16 12:13:54;;;;;;;22.27;18.65;;;;;;;10.73;90.14;103624.22;5233843;28;20061;-69
2021/12/16 12:16:37;;;;;;;24.88;18.90;;;;;;;10.75;89.92;103625.69;5240180;28;20486;-69
2021/12/16 12:19:19;;;;;;;24.33;18.92;;;;;;;10.79;90.87;103617.78;5228738;28;20397;-69
2021/12/16 12:21:56;;;;;;;20.23;15.98;;;;;;;10.87;90.32;103623.06;5236975;28;20018;-67
2021/12/16 12:24:34;;;;;;;18.83;13.65;;;;;;;10.92;91.67;103633.50;5239179;28;20491;-67
2021/12/16 12:27:12;;;;;;;14.73;12.68;;;;;;;11.03;91.67;103624.44;5239885;28;20041;-68
2021/12/16 12:29:58;;;;;;;19.65;14.55;;;;;;;11.07;90.99;103622.91;5240674;28;20056;-66
2021/12/16 12:32:35;;;;;;;16.10;12.77;;;;;;;11.19;91.14;103632.19;5241061;28;20017;-67
2021/12/16 12:35:14;;;;;;;18.23;14.30;;;;;;;11.07;89.03;103628.47;5225580;28;20421;-67
2021/12/16 12:37:50;;;;;;;20.08;14.50;;;;;;;11.06;87.73;103626.75;5223956;28;20075;-69
2021/12/16 12:40:23;;;;;;;;;;;;;;;11.14;88.40;103618.13;5231239;28;20110;-65
2021/12/16 12:42:56;;;;;;;18.30;14.73;;;;;;;11.09;89.12;103623.53;5219792;28;19917;-66
2021/12/16 12:45:35;;;;;;;16.02;14.25;;;;;;;11.10;89.40;103625.25;5242988;28;20033;-68
2021/12/16 12:48:13;;;;;;;23.98;15.70;;;;;;;11.14;89.46;103625.63;5243810;28;20025;-66
2021/12/16 12:50:49;;;;;;;17.38;13.68;;;;;;;11.14;88.97;103629.25;5241274;28;20045;-67
2021/12/16 12:53:31;;;;;;;19.45;14.52;;;;;;;11.30;88.87;103628.69;5236346;28;20358;-67
2021/12/16 12:56:14;;;;;;;22.65;15.98;;;;;;;11.16;87.45;103616.00;5241514;28;20025;-68
2021/12/16 12:58:59;;;;;;;21.20;16.48;;;;;;;11.23;87.96;103618.72;5243044;28;20054;-68
2021/12/16 13:01:51;;;;;;;20.97;14.93;;;;;;;11.20;87.40;103619.19;5244061;28;20037;-68
2021/12/16 13:04:33;;;;;;;19.95;15.23;;;;;;;11.22;87.66;103609.53;5243145;28;20030;-68
2021/12/16 13:07:07;;;;;;;40.95;36.42;;;;;;;11.28;86.60;103613.34;5227741;28;20033;-67
2021/12/16 13:09:53;;;;;;;32.55;27.55;;;;;;;11.40;88.23;103610.66;5236471;28;20087;-67
2021/12/16 13:12:40;;;;;;;30.45;24.45;;;;;;;11.29;85.92;103613.09;5243871;28;20065;-67
2021/12/16 13:15:50;;;;;;;22.20;18.63;;;;;;;11.36;85.36;103614.97;5243422;28;20025;-68
2021/12/16 13:24:34;;;;;;;17.75;12.75;;;;;;;11.38;81.23;103615.59;5238831;28;20021;-68
2021/12/16 13:27:13;;;;;;;17.38;13.95;;;;;;;11.61;85.19;103615.81;5243469;28;20051;-68
2021/12/16 13:32:45;;;;;;;15.48;12.10;;;;;;;11.68;81.24;103611.03;5228328;28;20029;-67
2021/12/16 13:35:48;;;;;;;15.32;11.27;;;;;;;11.83;82.15;103609.78;5233046;28;20033;-67
2021/12/16 13:38:16;;;;;;;19.17;14.30;;;;;;;11.82;79.58;103622.00;5242436;28;20053;-66
2021/12/16 13:40:50;;;;;;;14.45;10.82;;;;;;;11.90;80.11;103618.94;5242065;28;20021;-66
2021/12/16 13:43:26;;;;;;;17.95;11.07;;;;;;;12.02;79.19;103622.66;5226657;28;20029;-68
2021/12/16 13:49:00;;;;;;;15.15;10.70;;;;;;;12.05;77.83;103619.41;5239935;28;20456;-68
2021/12/16 14:04:24;;;;;;;18.55;16.08;;;;;;;12.05;76.36;103619.41;5242408;28;20069;-68
2021/12/16 14:07:02;;;;;;;19.38;13.88;;;;;;;11.95;76.67;103622.72;5234150;28;20022;-68
2021/12/16 14:09:36;;;;;;;13.18;10.27;;;;;;;11.88;77.31;103623.88;5242842;28;20029;-68
2021/12/16 14:15:08;;;;;;;15.15;13.48;;;;;;;11.90;79.19;103624.50;5241445;28;20029;-68
2021/12/16 14:23:38;;;;;;;16.88;10.93;;;;;;;11.66;77.99;103635.41;5222259;28;20073;-68
2021/12/16 14:26:39;;;;;;;13.65;11.18;;;;;;;11.61;78.60;103631.63;5216045;28;20038;-68
2021/12/16 14:35:00;;;;;;;41.70;34.33;;;;;;;11.57;79.08;103644.28;5236724;28;20030;-69
2021/12/16 14:37:49;;;;;;;19.92;15.63;;;;;;;11.67;80.89;103641.81;5221719;28;20022;-70
2021/12/16 14:40:51;;;;;;;25.80;22.75;;;;;;;11.54;80.16;103643.66;5230457;28;20108;-68
2021/12/16 14:43:37;;;;;;;14.68;12.07;;;;;;;11.53;80.22;103647.53;5242695;28;20527;-70
2021/12/16 14:46:11;;;;;;;27.60;21.90;;;;;;;11.51;80.02;103648.81;5239028;28;20018;-70
2021/12/16 14:48:42;;;;;;;21.08;15.88;;;;;;;11.54;81.60;103659.47;5238935;28;20040;-69
2021/12/16 14:51:15;;;;;;;15.63;12.45;;;;;;;11.60;82.33;103655.78;5226397;28;20116;-70
2021/12/16 14:53:54;;;;;;;15.77;12.57;;;;;;;11.54;81.22;103651.97;5250032;28;20029;-69
2021/12/16 14:56:36;;;;;;;16.92;10.82;;;;;;;11.37;80.05;103645.28;5262010;28;20028;-70
2021/12/16 14:59:13;;;;;;;17.63;12.30;;;;;;;11.57;82.80;103647.91;5262568;28;20041;-71
2021/12/16 15:01:48;;;;;;;16.02;10.75;;;;;;;11.54;82.91;103649.22;5261475;28;20191;-66
2021/12/16 15:04:25;;;;;;;22.70;13.95;;;;;;;11.53;82.38;103658.63;5236835;28;20028;-71
2021/12/16 15:07:03;;;;;;;13.85;11.18;;;;;;;11.53;82.82;103657.78;5227960;28;20029;-71
2021/12/16 15:09:38;;;;;;;16.40;11.60;;;;;;;11.59;82.99;103665.22;5232037;28;20025;-71
2021/12/16 15:12:17;;;;;;;23.02;12.13;;;;;;;11.27;81.21;103653.28;5238342;28;20030;-71
2021/12/16 15:15:15;;;;;;;17.33;13.63;;;;;;;11.31;80.64;103654.56;5222510;28;20030;-72
2021/12/16 15:40:53;;;;;;;16.27;11.10;;;;;;;11.21;83.10;103671.72;5238842;28;20104;-69
2021/12/16 15:43:31;;;;;;;15.20;10.63;;;;;;;11.25;82.98;103675.75;5220692;28;20375;-68
2021/12/16 15:46:06;;;;;;;17.17;12.10;;;;;;;11.13;81.56;103680.34;5232177;28;20068;-69
2021/12/16 15:48:39;;;;;;;13.52;10.25;;;;;;;11.34;83.01;103678.25;5236931;28;20095;-70
2021/12/16 15:51:11;;;;;;;16.77;9.95;;;;;;;11.22;82.05;103680.91;5239234;28;20393;-68
2021/12/16 15:53:46;;;;;;;16.25;9.90;;;;;;;11.09;80.59;103679.94;5255133;28;20033;-69
2021/12/16 15:56:19;;;;;;;;;;;;;;;11.24;82.07;103690.72;5243073;28;20078;-69
2021/12/16 15:59:10;;;;;;;15.30;9.45;;;;;;;11.33;83.08;103688.53;5239472;28;19916;-69
2021/12/16 16:01:46;;;;;;;11.45;8.40;;;;;;;11.26;81.70;103696.91;5230778;28;20069;-71
2021/12/16 16:04:22;;;;;;;;;;;;;;;11.29;82.14;103693.66;5220949;28;20030;-74
2021/12/16 16:06:57;;;;;;;19.63;12.87;;;;;;;11.05;79.47;103700.91;5222604;28;19926;-76
2021/12/16 16:09:38;;;;;;;18.98;9.77;;;;;;;11.00;80.05;103702.66;5221463;28;20401;-78
2021/12/16 16:12:16;;;;;;;14.63;9.73;;;;;;;10.95;79.97;103705.25;5223433;28;20019;-79
2021/12/16 16:14:55;;;;;;;19.70;10.55;;;;;;;10.87;80.43;103715.53;5240777;28;20029;-78
2021/12/16 16:17:28;;;;;;;15.95;10.48;;;;;;;10.83;80.22;103708.69;5240450;28;20037;-74
2021/12/16 16:20:01;;;;;;;17.23;11.27;;;;;;;10.78;80.79;103711.28;5233919;28;20037;-75
2021/12/16 16:22:33;;;;;;;20.58;14.57;;;;;;;10.75;81.19;103714.50;5245495;28;20029;-75
2021/12/16 16:25:05;;;;;;;17.17;11.18;;;;;;;10.74;81.36;103710.06;5245799;28;20041;-74
2021/12/16 16:27:59;;;;;;;21.95;14.95;;;;;;;10.75;81.74;103713.66;5379627;22;20005;-75
2021/12/16 16:30:31;;;;;;;20.15;12.00;;;;;;;10.69;81.80;103711.78;5205293;28;20031;-74
2021/12/16 16:33:11;;;;;;;17.98;13.05;;;;;;;10.71;81.17;103720.72;5209499;28;20374;-73
2021/12/16 16:35:55;;;;;;;18.08;12.48;;;;;;;10.69;81.50;103720.13;5210371;28;20425;-73
2021/12/16 16:38:52;;;;;;;20.17;12.80;;;;;;;10.71;81.57;103723.50;5226756;28;20083;-72
2021/12/16 16:41:30;;;;;;;18.52;13.75;;;;;;;10.64;81.80;103720.78;5225938;28;20061;-73
2021/12/16 16:44:06;;;;;;;22.33;13.35;;;;;;;10.64;81.92;103727.16;5206617;28;20054;-75
2021/12/16 16:46:53;;;;;;;21.83;13.13;;;;;;;10.59;82.16;103726.97;5205033;28;20374;-75
2021/12/16 16:49:29;;;;;;;29.73;21.10;;;;;;;10.58;81.86;103735.50;5203698;28;20050;-74
2021/12/16 16:52:09;;;;;;;16.20;13.75;;;;;;;10.57;81.90;103731.03;5204816;28;20034;-74
2021/12/16 16:55:04;;;;;;;17.15;13.63;;;;;;;10.57;82.42;103729.13;5204908;28;20483;-73
2021/12/16 16:57:45;;;;;;;16.45;12.77;;;;;;;10.53;82.00;103732.53;5204260;28;20030;-73
2021/12/16 17:00:52;;;;;;;19.67;14.02;;;;;;;10.57;81.97;103719.94;5203700;28;20023;-74
2021/12/16 17:03:23;;;;;;;21.90;13.25;;;;;;;10.50;82.02;103730.22;5137385;29;20384;-72
2021/12/16 17:05:59;;;;;;;19.50;16.58;;;;;;;10.39;82.31;103735.38;5202137;28;20043;-73
2021/12/16 17:08:35;;;;;;;24.40;17.92;;;;;;;10.33;82.50;103729.81;5202235;28;20026;-73
2021/12/16 17:11:14;;;;;;;36.40;26.67;;;;;;;10.32;82.74;103731.75;5202115;28;20034;-73
2021/12/16 17:19:18;;;;;;;28.58;19.90;;;;;;;10.17;83.19;103731.97;5209458;28;20046;-73
2021/12/16 17:21:50;;;;;;;27.67;20.80;;;;;;;10.16;83.16;103727.50;5216656;28;20030;-73
2021/12/16 17:24:26;;;;;;;25.20;18.42;;;;;;;10.12;83.45;103730.91;5201240;28;20026;-74
2021/12/16 17:27:04;;;;;;;24.20;19.52;;;;;;;10.06;82.97;103735.41;5203165;28;20029;-74
2021/12/16 17:29:40;;;;;;;25.90;17.45;;;;;;;10.08;83.02;103732.44;5202099;28;20054;-74
